Flight Track Log - Related Links

Times and Time Zones

All times are in EDT time to prevent confusion due to time zone crossing. See the LOF3359 flight status page for this flight to view local times or setup timezone preferences in your user account.

Time Position Orientation Groundspeed Altitude Reporting Facility
EDT Latitude Longitude Course Direction KTS MPH feet Rate Location/Type
Thu 02:47:04 PM 39.9119 -84.1519 78° East 183 211 2,400  Level Indianapolis Center
Thu 02:48:06 PM 39.9219 -84.0750 80° East 208 239 3,700 1,548 Climbing Indianapolis Center
Thu 02:49:08 PM 39.9372 -83.9778 78° East 249 287 5,600 2,081 Climbing Indianapolis Center
Thu 02:50:00 PM 39.9896 -83.5681 79° East  Level FlightAware Approximate
Thu 02:50:10 PM 39.9503 -83.8606 82° East 270 311 8,000  Level Indianapolis Center
Thu 02:51:00 PM 40.0135 -83.4392 74° East  Level FlightAware Approximate
Thu 02:51:12 PM 39.9661 -83.7575 79° East 279 321 9,800  Level Indianapolis Center
Thu 02:52:14 PM 39.9869 -83.6472 76° East 300 345 11,000 1,113 Climbing Indianapolis Center
Thu 02:53:16 PM 40.0064 -83.5256 78° East 334 384 12,100 1,113 Climbing Indianapolis Center
Thu 02:54:18 PM 40.0272 -83.3981 78° East 351 404 13,300 1,113 Climbing Indianapolis Center
Thu 02:55:20 PM 40.0464 -83.2675 79° East 359 413 14,400 1,016 Climbing Indianapolis Center
Thu 02:56:22 PM 40.0675 -83.1339 78° East 370 426 15,400 871 Climbing Indianapolis Center
Thu 02:57:24 PM 40.0886 -82.9961 79° East 381 438 16,200 823 Climbing Indianapolis Center
Thu 02:58:26 PM 40.1106 -82.8553 78° East 391 450 17,100 823 Climbing Indianapolis Center
Thu 02:59:28 PM 40.1200 -82.7147 85° East 385 443 17,900 871 Climbing Indianapolis Center
Thu 03:00:30 PM 40.1119 -82.5519 94° East 382 440 18,900 919 Climbing Indianapolis Center
Thu 03:01:32 PM 40.1050 -82.4083 94° East 391 450 19,800 871 Climbing Indianapolis Center
Thu 03:02:34 PM 40.0983 -82.2647 93° East 393 452 20,700 823 Climbing Indianapolis Center
Thu 03:03:36 PM 40.0903 -82.1186 94° East 398 458 21,500 823 Climbing Indianapolis Center
Thu 03:04:38 PM 40.0833 -81.9719 93° East 401 461 22,400 726 Climbing Indianapolis Center
Thu 03:05:40 PM 40.0747 -81.8242 94° East 406 467 23,000 290 Climbing Indianapolis Center
Thu 03:06:42 PM 40.0656 -81.6575 94° East 424 488 23,000 -194 Level Indianapolis Center
Thu 03:07:44 PM 40.0567 -81.4964 94° East 440 506 22,600 -677 Descending Indianapolis Center
Thu 03:08:46 PM 40.0464 -81.3250 94° East 466 536 21,600 -722 Descending Indianapolis Center
Thu 03:09:57 PM 40.0283 -81.1036 96° East 472 543 21,000 -275 Descending Cleveland Center
Thu 03:10:57 PM 39.9789 -80.9569 114° Southeast 446 513 21,000  Level Cleveland Center
Thu 03:11:57 PM 39.9253 -80.8106 115° Southeast 446 513 21,000  Level Cleveland Center
Thu 03:12:57 PM 39.8711 -80.6669 116° Southeast 441 507 21,000  Level Cleveland Center
Thu 03:13:57 PM 39.8169 -80.5236 116° Southeast 441 507 21,000  Level Cleveland Center
Thu 03:14:57 PM 39.7647 -80.3833 116° Southeast 441 507 21,000  Level Cleveland Center
Thu 03:17:02 PM 39.6522 -80.1008 117° Southeast 430 495 21,000  Level Washington Center
Thu 03:18:02 PM 39.5989 -79.9628 117° Southeast 430 495 21,000  Level Washington Center
Thu 03:19:02 PM 39.5500 -79.8172 113° Southeast 435 501 21,000  Level Washington Center
Thu 03:20:02 PM 39.5242 -79.6594 102° East 440 506 21,000  Level Washington Center
Thu 03:21:02 PM 39.4958 -79.5047 103° East 445 512 21,000  Level Washington Center
Thu 03:22:02 PM 39.4656 -79.3444 104° East 445 512 21,000  Level Washington Center
Thu 03:23:02 PM 39.4392 -79.1897 102° East 445 512 21,000 -450 Level Washington Center
Thu 03:24:02 PM 39.4122 -79.0408 103° East 439 505 20,100 -1,100 Descending Washington Center
Thu 03:25:02 PM 39.3792 -78.8808 105° East 423 487 18,800 -1,400 Descending Washington Center
Thu 03:26:02 PM 39.3556 -78.7536 103° East 413 475 17,300 -1,650 Descending Washington Center
Thu 03:27:02 PM 39.3281 -78.5994 103° East 406 467 15,500 -1,750 Descending Washington Center
Thu 03:28:02 PM 39.3061 -78.4778 103° East 389 448 13,800 -1,950 Descending Washington Center
Thu 03:29:02 PM 39.2717 -78.3422 108° East 370 426 11,600 -1,450 Descending Washington Center
Thu 03:30:02 PM 39.2300 -78.2575 122° Southeast 326 375 10,900 -1,200 Descending Washington Center
Thu 03:31:02 PM 39.1800 -78.1622 124° Southeast 301 346 9,200 -1,600 Descending Washington Center
Thu 03:32:02 PM 39.1378 -78.0856 125° Southeast 290 334 7,700 -1,100 Descending Washington Center
Thu 03:33:02 PM 39.0894 -77.9958 125° Southeast 284 327 7,000 -350 Descending Washington Center
Thu 03:34:02 PM 39.0514 -77.9222 124° Southeast 279 321 7,000 -450 Level Washington Center
Thu 03:35:02 PM 39.0050 -77.8328 124° Southeast 279 321 6,100 -500 Descending Washington Center
Thu 03:36:02 PM 38.9669 -77.7594 124° Southeast 274 315 6,000 -63 Descending Washington Center
Thu 03:38:11 PM 39.0167 -77.5833 70° East 287 330 5,900 -444 Descending Potomac TRACON
Thu 03:39:11 PM 39.1000 -77.5667 North 274 315 4,600 -1,300 Descending Potomac TRACON
Thu 03:40:11 PM 39.1333 -77.5333 38° Northeast 251 289 3,300 -843 Descending Potomac TRACON
Thu 03:41:12 PM 39.1000 -77.4667 123° Southeast 183 211 2,900 -393 Descending Potomac TRACON

Login

Don't have an account? Register now (free) for customized features, flight alerts, and more!